Elizabeth, Arkansas
Current Conditions -  °F | °C
As of 3:53 PM on Saturday 20 Dec 2014 (Local Time) from KBPK Reporting Station
Haze Haze  
Wind Chill: 39°   Ceiling: 2300
Heat Index: 42°   Visibility: 5mi
Dew Point: 39°   Wind: 5mph
Humidity: 89%   Direction: 100°E
Pressure: 30.2"   Gusts: NA
Location:  36.33°N, 92.1°W
Report Text: KBPK 202153Z AUTO 10004KT 5SM BR OVC023 06/04 A3020 RMK AO2 SLP229 T00560039
Loading
Personal Weather Stations






























Interactive Weather Map New forecast layout! Learn more

10-Day Weather Forecast

Advertisements
Track Severe Weather on mobile